createdAt,value
2019-02-02T00:00:51.187Z,97449.84
2019-02-02T00:03:19.464Z,97450.84
2019-02-02T00:05:49.754Z,97447.84
2019-02-02T00:08:19.371Z,97450.07
2019-02-02T00:10:48.657Z,97462.95
2019-02-02T00:13:17.111Z,97462.66
2019-02-02T00:15:45.370Z,97477.67
2019-02-02T00:18:13.899Z,97485.07
2019-02-02T00:20:42.050Z,97488.59
2019-02-02T00:23:11.237Z,97495.00
2019-02-02T00:25:39.288Z,97490.91
2019-02-02T00:28:07.372Z,97495.31
2019-02-02T00:30:35.422Z,97492.42
2019-02-02T00:33:04.238Z,97488.52
2019-02-02T00:35:32.499Z,97488.52
2019-02-02T00:38:00.590Z,97477.80
2019-02-02T00:40:30.451Z,97466.60
2019-02-02T00:42:58.543Z,97469.53
2019-02-02T00:45:26.588Z,97478.63
2019-02-02T00:47:54.714Z,97474.61
2019-02-02T00:50:23.134Z,97470.92
2019-02-02T00:52:51.321Z,97467.73
2019-02-02T00:55:19.695Z,97470.84
2019-02-02T00:57:53.527Z,97470.22
2019-02-02T01:00:18.023Z,97478.22
2019-02-02T01:02:46.118Z,97478.81
2019-02-02T01:05:15.940Z,97470.94
2019-02-02T01:07:45.360Z,97469.23
2019-02-02T01:10:19.108Z,97485.02
2019-02-02T01:12:47.856Z,97486.53
2019-02-02T01:15:16.916Z,97485.73
2019-02-02T01:17:47.444Z,97492.44
2019-02-02T01:20:16.029Z,97500.61
2019-02-02T01:22:44.608Z,97511.21
2019-02-02T01:25:13.716Z,97509.70
2019-02-02T01:27:42.196Z,97510.62
2019-02-02T01:30:12.376Z,97517.99
2019-02-02T01:32:40.475Z,97530.09
2019-02-02T01:35:10.683Z,97545.75
2019-02-02T01:37:39.017Z,97551.36
2019-02-02T01:40:11.493Z,97545.24
2019-02-02T01:42:39.571Z,97542.26
2019-02-02T01:45:12.225Z,97542.93
2019-02-02T01:47:42.369Z,97542.34
2019-02-02T01:50:13.900Z,97545.94
2019-02-02T01:52:42.216Z,97542.74
2019-02-02T01:55:12.952Z,97548.73
2019-02-02T01:57:42.247Z,97539.45
2019-02-02T02:00:16.352Z,97540.54
2019-02-02T02:02:44.763Z,97538.73
2019-02-02T02:05:13.237Z,97536.64
2019-02-02T02:07:42.227Z,97528.86
2019-02-02T02:10:12.953Z,97522.36
2019-02-02T02:12:41.065Z,97518.77
2019-02-02T02:15:12.582Z,97515.20
2019-02-02T02:17:41.039Z,97522.16
2019-02-02T02:20:10.830Z,97517.97
2019-02-02T02:22:41.594Z,97516.67
2019-02-02T02:25:16.061Z,97529.06
2019-02-02T02:27:44.864Z,97527.97
2019-02-02T02:30:16.482Z,97521.68
2019-02-02T02:32:44.999Z,97514.86
2019-02-02T02:35:14.558Z,97510.88
2019-02-02T02:37:43.994Z,97512.97
2019-02-02T02:40:15.847Z,97511.88
2019-02-02T02:42:44.529Z,97514.84
2019-02-02T02:45:13.425Z,97511.36
2019-02-02T02:47:42.793Z,97513.16
2019-02-02T02:50:14.064Z,97520.02
2019-02-02T02:52:42.138Z,97531.41
2019-02-02T02:55:11.859Z,97513.53
2019-02-02T02:57:40.126Z,97516.92
2019-02-02T03:00:19.980Z,97524.24
2019-02-02T03:02:48.544Z,97520.23
2019-02-02T03:05:17.866Z,97509.05
2019-02-02T03:07:47.675Z,97509.05
2019-02-02T03:10:17.569Z,97505.66
2019-02-02T03:12:45.758Z,97498.96
2019-02-02T03:15:15.091Z,97487.28
2019-02-02T03:17:43.271Z,97498.66
2019-02-02T03:20:13.078Z,97502.55
2019-02-02T03:22:41.102Z,97506.16
2019-02-02T03:25:13.226Z,97519.62
2019-02-02T03:27:41.298Z,97532.81
2019-02-02T03:30:13.257Z,97532.89
2019-02-02T03:32:42.484Z,97533.29
2019-02-02T03:35:11.943Z,97537.76
2019-02-02T03:37:40.127Z,97538.03
2019-02-02T03:40:15.158Z,97541.03
2019-02-02T03:42:43.608Z,97546.59
2019-02-02T03:45:13.993Z,97553.77
2019-02-02T03:47:42.027Z,97556.07
2019-02-02T03:50:10.535Z,97560.96
2019-02-02T03:52:38.565Z,97554.77
2019-02-02T03:55:08.427Z,97551.38
2019-02-02T03:57:37.798Z,97552.48
2019-02-02T04:00:08.815Z,97560.77
2019-02-02T04:02:37.976Z,97564.85
2019-02-02T04:05:10.033Z,97563.42
2019-02-02T04:07:38.059Z,97565.22
2019-02-02T04:10:07.981Z,97576.09
2019-02-02T04:12:36.044Z,97596.85
2019-02-02T04:15:05.584Z,97599.74
2019-02-02T04:17:33.637Z,97587.27
2019-02-02T04:20:01.943Z,97583.98
2019-02-02T04:22:29.997Z,97594.06
2019-02-02T04:24:58.090Z,97604.63
2019-02-02T04:27:26.627Z,97599.14
2019-02-02T04:29:54.951Z,97590.86
2019-02-02T04:32:22.998Z,97603.84
2019-02-02T04:34:51.047Z,97595.05
2019-02-02T04:37:19.111Z,97576.89
2019-02-02T04:39:48.981Z,97580.78
2019-02-02T04:42:18.143Z,97573.00
2019-02-02T04:44:47.530Z,97562.33
2019-02-02T04:47:15.691Z,97577.70
2019-02-02T04:49:43.767Z,97577.89
2019-02-02T04:52:11.823Z,97575.59
2019-02-02T04:54:39.899Z,97568.11
2019-02-02T04:57:07.929Z,97572.30
2019-02-02T04:59:36.050Z,97579.92
2019-02-02T05:02:04.205Z,97581.52
2019-02-02T05:04:33.436Z,97610.86
2019-02-02T05:07:02.742Z,97609.86
2019-02-02T05:09:30.883Z,97616.14
2019-02-02T05:11:59.061Z,97623.43
2019-02-02T05:14:28.346Z,97619.04
2019-02-02T05:16:56.414Z,97631.84
2019-02-02T05:19:25.901Z,97637.03
2019-02-02T05:21:54.104Z,97656.80
2019-02-02T05:24:23.095Z,97662.34
2019-02-02T05:26:51.124Z,97664.84
2019-02-02T05:29:20.951Z,97670.53
2019-02-02T05:31:49.341Z,97677.81
2019-02-02T05:34:17.804Z,97679.61
2019-02-02T05:36:45.890Z,97682.70
2019-02-02T05:39:13.962Z,97680.80
2019-02-02T05:41:42.393Z,97687.28
2019-02-02T05:44:10.460Z,97692.94
2019-02-02T05:46:38.569Z,97685.86
2019-02-02T05:49:06.669Z,97691.84
2019-02-02T05:51:34.728Z,97693.77
2019-02-02T05:54:03.088Z,97694.73
2019-02-02T05:56:31.153Z,97700.13
2019-02-02T05:58:59.242Z,97704.70
2019-02-02T06:01:29.957Z,97711.19
2019-02-02T06:03:57.838Z,97715.88
2019-02-02T06:06:25.897Z,97715.28
2019-02-02T06:08:54.068Z,97722.56
2019-02-02T06:11:22.176Z,97728.25
2019-02-02T06:13:50.345Z,97728.86
2019-02-02T06:16:18.437Z,97735.28
2019-02-02T06:18:46.496Z,97739.97
2019-02-02T06:21:16.152Z,97744.17
2019-02-02T06:23:44.571Z,97745.47
2019-02-02T06:26:12.670Z,97753.05
2019-02-02T06:28:41.093Z,97754.05
2019-02-02T06:31:09.262Z,97759.54
2019-02-02T06:33:37.710Z,97760.23
2019-02-02T06:36:05.749Z,97765.92
2019-02-02T06:38:35.321Z,97769.81
2019-02-02T06:41:03.392Z,97768.37
2019-02-02T06:43:31.668Z,97772.46
2019-02-02T06:45:59.804Z,97774.45
2019-02-02T06:48:27.910Z,97782.23
2019-02-02T06:50:56.659Z,97787.58
2019-02-02T06:53:26.272Z,97796.66
2019-02-02T06:55:54.429Z,97795.37
2019-02-02T06:58:22.493Z,97800.55
2019-02-02T07:00:50.560Z,97808.34
2019-02-02T07:03:19.048Z,97809.16
2019-02-02T07:05:47.431Z,97814.66
2019-02-02T07:08:15.491Z,97813.36
2019-02-02T07:10:44.667Z,97819.05
2019-02-02T07:13:12.758Z,97826.33
2019-02-02T07:15:40.935Z,97826.64
2019-02-02T07:18:10.718Z,97836.33
2019-02-02T07:20:40.089Z,97833.23
2019-02-02T07:23:08.227Z,97831.13
2019-02-02T07:25:36.279Z,97835.52
2019-02-02T07:28:04.690Z,97834.72
2019-02-02T07:30:33.865Z,97839.22
2019-02-02T07:33:03.048Z,97840.02
2019-02-02T07:35:31.310Z,97843.25
2019-02-02T07:37:59.365Z,97845.66
2019-02-02T07:40:27.458Z,97848.86
2019-02-02T07:42:55.624Z,97854.98
2019-02-02T07:45:30.489Z,97850.80
2019-02-02T07:47:58.526Z,97857.09
2019-02-02T07:50:29.668Z,97862.09
2019-02-02T07:52:57.727Z,97859.69
2019-02-02T07:55:28.769Z,97854.00
2019-02-02T07:57:56.927Z,97853.80
2019-02-02T08:00:40.378Z,97863.33
2019-02-02T08:03:03.706Z,97864.44
2019-02-02T08:05:31.899Z,97861.75
2019-02-02T08:08:01.469Z,97858.66
2019-02-02T08:10:29.526Z,97860.59
2019-02-02T08:12:57.949Z,97870.59
2019-02-02T08:15:30.189Z,97877.88
2019-02-02T08:17:58.624Z,97878.02
2019-02-02T08:20:26.748Z,97878.02
2019-02-02T08:22:56.541Z,97875.23
2019-02-02T08:25:29.090Z,97886.91
2019-02-02T08:27:57.323Z,97893.20
2019-02-02T08:30:28.331Z,97890.12
2019-02-02T08:32:56.496Z,97901.11
2019-02-02T08:35:24.585Z,97902.66
2019-02-02T08:37:52.855Z,97900.80
2019-02-02T08:40:21.227Z,97905.45
2019-02-02T08:42:49.289Z,97907.77
2019-02-02T08:45:19.987Z,97904.72
2019-02-02T08:47:48.123Z,97902.00
2019-02-02T08:50:26.247Z,97904.25
2019-02-02T08:52:54.305Z,97905.05
2019-02-02T08:55:22.363Z,97906.16
2019-02-02T08:57:52.269Z,97901.56
2019-02-02T09:00:20.947Z,97897.80
2019-02-02T09:02:49.046Z,97903.59
2019-02-02T09:05:19.151Z,97901.66
2019-02-02T09:07:47.407Z,97898.34
2019-02-02T09:10:18.629Z,97892.69
2019-02-02T09:12:46.951Z,97902.70
2019-02-02T09:15:15.843Z,97901.55
2019-02-02T09:17:45.689Z,97902.86
2019-02-02T09:20:14.714Z,97907.88
2019-02-02T09:22:43.495Z,97896.87
2019-02-02T09:25:13.562Z,97907.67
2019-02-02T09:27:41.615Z,97903.72
2019-02-02T09:30:31.956Z,97910.07
2019-02-02T09:33:01.088Z,97916.05
2019-02-02T09:35:29.978Z,97916.84
2019-02-02T09:38:01.041Z,97916.34
2019-02-02T09:40:29.156Z,97927.05
2019-02-02T09:42:57.313Z,97925.86
2019-02-02T09:45:25.454Z,97928.53
2019-02-02T09:47:53.581Z,97932.80
2019-02-02T09:50:22.975Z,97932.95
2019-02-02T09:52:51.470Z,97939.03
2019-02-02T09:55:21.118Z,97944.08
2019-02-02T09:57:54.952Z,97946.45
2019-02-02T10:00:27.535Z,97944.53
2019-02-02T10:02:55.938Z,97952.70
2019-02-02T10:05:24.189Z,97958.52
2019-02-02T10:07:52.474Z,97962.17
2019-02-02T10:10:23.382Z,97960.80
2019-02-02T10:12:51.474Z,97966.73
2019-02-02T10:15:19.827Z,97967.05
2019-02-02T10:17:49.756Z,97969.97
2019-02-02T10:20:20.991Z,97972.33
2019-02-02T10:22:49.435Z,97978.33
2019-02-02T10:25:20.569Z,97976.42
2019-02-02T10:27:48.834Z,97984.40
2019-02-02T10:30:29.639Z,97984.75
2019-02-02T10:32:57.752Z,97991.39
2019-02-02T10:35:25.841Z,97991.19
2019-02-02T10:37:53.979Z,97994.38
2019-02-02T10:40:22.072Z,97998.14
2019-02-02T10:42:50.236Z,97996.94
2019-02-02T10:45:18.479Z,97993.05
2019-02-02T10:47:46.524Z,97997.91
2019-02-02T10:50:15.944Z,97998.42
2019-02-02T10:52:44.673Z,97998.59
2019-02-02T10:55:15.231Z,97997.31
2019-02-02T10:57:43.310Z,97999.48
2019-02-02T11:00:17.286Z,98004.03
2019-02-02T11:02:46.674Z,98009.06
2019-02-02T11:05:15.061Z,98008.30
2019-02-02T11:07:43.380Z,98007.47
2019-02-02T11:10:18.527Z,98006.66
2019-02-02T11:12:46.994Z,98011.69
2019-02-02T11:15:17.103Z,98011.42
2019-02-02T11:17:46.557Z,98017.72
2019-02-02T11:20:18.118Z,98013.42
2019-02-02T11:22:46.385Z,98011.47
2019-02-02T11:25:14.845Z,97999.27
2019-02-02T11:27:43.245Z,98001.11
2019-02-02T11:30:13.389Z,98004.81
2019-02-02T11:32:41.873Z,98010.66
2019-02-02T11:35:11.755Z,98015.38
2019-02-02T11:37:39.827Z,98015.29
2019-02-02T11:40:17.419Z,98025.56
2019-02-02T11:42:45.598Z,98029.73
2019-02-02T11:45:14.204Z,98022.02
2019-02-02T11:47:42.580Z,98014.27
2019-02-02T11:50:12.911Z,98012.37
2019-02-02T11:52:42.787Z,98011.56
2019-02-02T11:55:11.923Z,98010.72
2019-02-02T11:57:42.366Z,98009.38
2019-02-02T12:00:36.194Z,98008.29
2019-02-02T12:03:04.882Z,98001.94
2019-02-02T12:05:34.098Z,98001.66
2019-02-02T12:08:02.496Z,98004.57
2019-02-02T12:10:31.329Z,98007.21
2019-02-02T12:12:59.564Z,98014.05
2019-02-02T12:15:30.623Z,98012.69
2019-02-02T12:17:58.917Z,98020.88
2019-02-02T12:20:28.979Z,98026.92
2019-02-02T12:22:57.089Z,98028.95
2019-02-02T12:25:25.964Z,98032.50
2019-02-02T12:27:54.555Z,98034.52
2019-02-02T12:30:28.830Z,98035.80
2019-02-02T12:32:57.112Z,98039.23
2019-02-02T12:35:25.650Z,98038.91
2019-02-02T12:37:53.857Z,98038.84
2019-02-02T12:40:22.331Z,98041.42
2019-02-02T12:42:50.591Z,98043.76
2019-02-02T12:45:38.306Z,98044.45
2019-02-02T12:48:06.799Z,98048.55
2019-02-02T12:50:34.952Z,98048.22
2019-02-02T12:53:03.555Z,98053.94
2019-02-02T12:55:31.663Z,98054.67
2019-02-02T13:08:16.645Z,98058.68
2019-02-02T13:10:45.542Z,98063.56
2019-02-02T13:13:13.709Z,98069.81
2019-02-02T13:15:42.273Z,98074.75
2019-02-02T13:18:11.692Z,98079.47
2019-02-02T13:20:39.823Z,98079.38
2019-02-02T13:23:07.900Z,98082.17
2019-02-02T13:25:36.056Z,98099.16
2019-02-02T13:28:04.557Z,98104.83
2019-02-02T13:30:34.744Z,98115.47
2019-02-02T13:33:03.803Z,98114.75
2019-02-02T13:35:34.678Z,98128.81
2019-02-02T13:38:03.454Z,98128.63
2019-02-02T13:40:31.610Z,98134.31
2019-02-02T13:42:59.729Z,98139.42
2019-02-02T13:45:30.007Z,98155.82
2019-02-02T13:47:58.377Z,98160.62
2019-02-02T13:50:26.870Z,98159.15
2019-02-02T13:52:55.858Z,98167.39
2019-02-02T13:55:24.103Z,98161.98
2019-02-02T13:57:52.352Z,98173.36
2019-02-02T14:00:30.598Z,98175.87
2019-02-02T14:03:03.502Z,98177.22
2019-02-02T14:05:30.354Z,98174.21
2019-02-02T14:08:00.195Z,98177.75
2019-02-02T14:10:30.044Z,98182.59
2019-02-02T14:12:58.236Z,98186.41
2019-02-02T14:15:26.293Z,98193.88
2019-02-02T14:17:54.420Z,98187.69
2019-02-02T14:20:22.463Z,98184.45
2019-02-02T14:22:50.612Z,98188.53
2019-02-02T14:25:18.834Z,98188.12
2019-02-02T14:27:47.324Z,98202.22
2019-02-02T14:30:20.796Z,98206.54
2019-02-02T14:32:48.893Z,98210.34
2019-02-02T14:35:18.806Z,98211.77
2019-02-02T14:37:47.036Z,98209.59
2019-02-02T14:40:16.908Z,98217.98
2019-02-02T14:42:45.221Z,98217.19
2019-02-02T14:45:16.306Z,98217.90
2019-02-02T14:47:44.394Z,98214.70
2019-02-02T14:50:19.067Z,98218.88
2019-02-02T14:52:47.511Z,98220.41
2019-02-02T14:55:19.091Z,98228.71
2019-02-02T14:57:48.206Z,98233.33
2019-02-02T15:00:19.282Z,98236.32
2019-02-02T15:02:47.534Z,98239.25
2019-02-02T15:05:16.559Z,98245.05
2019-02-02T15:07:44.653Z,98247.27
2019-02-02T15:10:12.871Z,98254.98
2019-02-02T15:12:41.383Z,98257.74
2019-02-02T15:15:11.071Z,98261.23
2019-02-02T15:17:39.466Z,98267.66
2019-02-02T15:20:14.003Z,98274.28
2019-02-02T15:22:42.165Z,98275.43
2019-02-02T15:25:10.257Z,98273.38
2019-02-02T15:27:38.464Z,98282.68
2019-02-02T15:30:09.460Z,98270.66
2019-02-02T15:32:37.849Z,98274.42
2019-02-02T15:35:06.235Z,98284.25
2019-02-02T15:37:34.315Z,98284.59
2019-02-02T15:40:02.442Z,98282.61
2019-02-02T15:42:30.506Z,98286.37
2019-02-02T15:44:58.575Z,98294.37
2019-02-02T15:47:26.648Z,98292.67
2019-02-02T15:49:54.792Z,98297.62
2019-02-02T15:52:22.823Z,98303.30
2019-02-02T15:54:50.896Z,98304.00
2019-02-02T15:57:19.033Z,98299.48
2019-02-02T15:59:47.099Z,98305.13
2019-02-02T16:02:16.196Z,98306.84
2019-02-02T16:04:44.298Z,98313.83
2019-02-02T16:07:12.438Z,98316.85
2019-02-02T16:09:40.535Z,98321.72
2019-02-02T16:12:08.588Z,98327.36
2019-02-02T16:14:36.750Z,98333.25
2019-02-02T16:17:04.790Z,98330.23
2019-02-02T16:19:32.960Z,98329.86
2019-02-02T16:22:01.097Z,98332.08
2019-02-02T16:24:29.516Z,98329.06
2019-02-02T16:33:32.871Z,98337.08
2019-02-02T16:36:01.416Z,98345.27
2019-02-02T16:38:29.601Z,98340.36
2019-02-02T16:40:57.733Z,98357.49
2019-02-02T16:43:25.817Z,98364.94
2019-02-02T16:45:53.930Z,98369.79
2019-02-02T16:48:22.117Z,98374.41
2019-02-02T16:50:50.297Z,98380.56
2019-02-02T16:53:21.645Z,98385.17
2019-02-02T16:55:48.801Z,98385.09
2019-02-02T16:58:17.091Z,98396.27
2019-02-02T17:00:45.219Z,98396.87
2019-02-02T17:03:13.478Z,98394.97
2019-02-02T17:05:42.099Z,98389.33
2019-02-02T17:08:10.285Z,98393.66
2019-02-02T17:10:38.548Z,98393.76
2019-02-02T17:13:07.047Z,98396.28
2019-02-02T17:15:36.751Z,98405.14
2019-02-02T17:18:06.105Z,98407.46
2019-02-02T17:20:43.140Z,98409.95
2019-02-02T17:23:11.317Z,98412.69
2019-02-02T17:25:40.016Z,98416.70
2019-02-02T17:28:08.552Z,98420.02
2019-02-02T17:30:37.020Z,98431.67
2019-02-02T17:33:08.793Z,98429.47
2019-02-02T17:35:37.271Z,98427.23
2019-02-02T17:38:05.469Z,98437.81
2019-02-02T17:40:33.591Z,98434.59
2019-02-02T17:43:01.748Z,98439.70
2019-02-02T17:45:30.200Z,98440.11
2019-02-02T17:47:58.441Z,98442.30
2019-02-02T17:50:26.955Z,98440.91
2019-02-02T17:52:54.991Z,98440.78
2019-02-02T17:55:23.502Z,98448.23
2019-02-02T17:57:52.116Z,98458.55
2019-02-02T18:00:55.820Z,98462.05
2019-02-02T18:03:24.068Z,98471.59
2019-02-02T18:05:52.273Z,98488.45
2019-02-02T18:08:20.368Z,98493.28
2019-02-02T18:10:48.795Z,98505.70
2019-02-02T18:13:16.953Z,98505.10
2019-02-02T18:15:45.226Z,98511.03
2019-02-02T18:18:13.551Z,98526.88
2019-02-02T18:20:41.777Z,98523.36
2019-02-02T18:23:10.093Z,98525.67
2019-02-02T18:25:38.468Z,98536.62
2019-02-02T18:28:06.811Z,98545.45
2019-02-02T18:30:35.138Z,98552.16
2019-02-02T18:33:03.578Z,98562.00
2019-02-02T18:35:35.572Z,98566.92
2019-02-02T18:38:03.820Z,98573.95
2019-02-02T18:40:32.270Z,98575.76
2019-02-02T18:43:00.390Z,98573.65
2019-02-02T18:45:28.676Z,98574.65
2019-02-02T18:47:57.137Z,98580.84
2019-02-02T18:50:26.536Z,98587.07
2019-02-02T18:52:54.940Z,98594.41
2019-02-02T18:55:30.274Z,98599.83
2019-02-02T18:57:58.470Z,98594.30
2019-02-02T19:00:27.874Z,98600.83
2019-02-02T19:02:56.186Z,98604.44
2019-02-02T19:05:25.466Z,98606.05
2019-02-02T19:07:53.711Z,98609.16
2019-02-02T19:10:26.391Z,98605.75
2019-02-02T19:12:54.445Z,98610.97
2019-02-02T19:15:24.374Z,98611.66
2019-02-02T19:17:53.156Z,98614.45
2019-02-02T19:20:21.638Z,98617.05
2019-02-02T19:22:49.901Z,98623.78
2019-02-02T19:25:18.085Z,98620.87
2019-02-02T19:27:46.546Z,98627.89
2019-02-02T19:30:24.256Z,98631.00
2019-02-02T19:32:52.904Z,98632.17
2019-02-02T19:35:21.985Z,98642.81
2019-02-02T19:37:50.276Z,98650.34
2019-02-02T19:40:18.620Z,98656.26
2019-02-02T19:42:46.822Z,98660.67
2019-02-02T19:45:17.924Z,98660.37
2019-02-02T19:47:46.573Z,98654.51
2019-02-02T19:50:18.006Z,98663.53
2019-02-02T19:52:46.777Z,98662.59
2019-02-02T19:55:15.196Z,98668.01
2019-02-02T19:57:43.579Z,98671.62
2019-02-02T20:00:16.311Z,98678.64
2019-02-02T20:02:45.767Z,98677.70
2019-02-02T20:05:14.163Z,98677.70
2019-02-02T20:07:42.601Z,98680.50
2019-02-02T20:10:14.065Z,98693.44
2019-02-02T20:12:42.647Z,98696.74
2019-02-02T20:15:15.095Z,98701.82
2019-02-02T20:17:45.850Z,98718.48
2019-02-02T20:20:17.246Z,98727.30
2019-02-02T20:22:45.708Z,98726.84
2019-02-02T20:25:14.189Z,98729.66
2019-02-02T20:27:42.626Z,98732.14
2019-02-02T20:30:14.811Z,98749.11
2019-02-02T20:32:43.403Z,98746.84
2019-02-02T20:35:12.108Z,98756.86
2019-02-02T20:37:40.366Z,98766.19
2019-02-02T20:40:12.164Z,98775.47
2019-02-02T20:42:41.511Z,98785.91
2019-02-02T20:45:13.558Z,98779.27
2019-02-02T20:47:41.687Z,98786.78
2019-02-02T20:50:13.672Z,98793.16
2019-02-02T20:52:47.483Z,98790.74
2019-02-02T20:55:15.970Z,98795.16
2019-02-02T20:57:45.974Z,98798.56
2019-02-02T21:00:18.137Z,98796.45
2019-02-02T21:02:47.363Z,98793.54
2019-02-02T21:05:17.794Z,98800.56
2019-02-02T21:07:47.154Z,98798.95
2019-02-02T21:10:18.163Z,98796.99
2019-02-02T21:12:46.474Z,98795.69
2019-02-02T21:15:14.903Z,98799.98
2019-02-02T21:17:43.137Z,98802.59
2019-02-02T21:20:20.723Z,98804.89
2019-02-02T21:22:49.735Z,98805.58
2019-02-02T21:25:17.939Z,98800.52
2019-02-02T21:27:47.767Z,98807.22
2019-02-02T21:30:28.349Z,98805.61
2019-02-02T21:32:56.942Z,98809.52
2019-02-02T21:35:25.913Z,98804.49
2019-02-02T21:37:54.530Z,98816.23
2019-02-02T21:40:26.493Z,98811.33
2019-02-02T21:42:54.865Z,98816.54
2019-02-02T21:45:23.399Z,98825.48
2019-02-02T21:47:51.983Z,98828.09
2019-02-02T21:50:21.523Z,98828.09
2019-02-02T21:52:51.360Z,98828.89
2019-02-02T21:55:22.517Z,98832.00
2019-02-02T21:57:50.783Z,98835.41
2019-02-02T22:00:37.192Z,98842.43
2019-02-02T22:03:06.695Z,98840.50
2019-02-02T22:05:36.230Z,98833.02
2019-02-02T22:08:07.364Z,98834.52
2019-02-02T22:10:35.506Z,98841.72
2019-02-02T22:13:05.868Z,98836.35
2019-02-02T22:15:36.157Z,98848.58
2019-02-02T22:18:04.647Z,98849.76
2019-02-02T22:20:32.942Z,98861.87
2019-02-02T22:23:01.248Z,98858.30
2019-02-02T22:25:30.449Z,98860.78
2019-02-02T22:27:58.898Z,98873.66
2019-02-02T22:30:30.174Z,98873.72
2019-02-02T22:32:58.313Z,98883.02
2019-02-02T22:35:26.833Z,98886.09
2019-02-02T22:37:55.342Z,98889.69
2019-02-02T22:40:24.868Z,98888.08
2019-02-02T22:42:53.079Z,98896.58
2019-02-02T22:45:21.887Z,98903.77
2019-02-02T22:47:50.475Z,98907.52
2019-02-02T22:50:22.061Z,98909.50
2019-02-02T22:52:50.136Z,98911.14
2019-02-02T22:55:18.712Z,98915.23
2019-02-02T22:57:46.875Z,98919.33
2019-02-02T23:01:01.950Z,98915.28
2019-02-02T23:04:11.967Z,98921.45
2019-02-02T23:07:20.955Z,98920.83
2019-02-02T23:10:58.759Z,98927.70
2019-02-02T23:14:23.437Z,98932.76
2019-02-02T23:16:51.669Z,98933.61
2019-02-02T23:19:19.785Z,98938.05
2019-02-02T23:21:47.835Z,98942.78
2019-02-02T23:24:15.922Z,98938.25
2019-02-02T23:26:44.184Z,98949.97
2019-02-02T23:29:12.396Z,98946.70
2019-02-02T23:31:41.652Z,98953.39
2019-02-02T23:34:09.707Z,98954.70
2019-02-02T23:36:38.267Z,98951.95
2019-02-02T23:39:08.274Z,98960.09
2019-02-02T23:41:37.063Z,98958.47
2019-02-02T23:44:05.311Z,98963.50
2019-02-02T23:46:33.627Z,98957.98
2019-02-02T23:49:02.119Z,98950.66
2019-02-02T23:51:30.321Z,98957.66
2019-02-02T23:53:59.518Z,98955.20
2019-02-02T23:56:28.107Z,98956.85
2019-02-02T23:58:57.927Z,98957.18
